createdAt,value
2019-02-19T00:00:32.301Z,25.77
2019-02-19T00:02:58.902Z,23.47
2019-02-19T00:05:25.451Z,23.70
2019-02-19T00:07:51.934Z,26.40
2019-02-19T00:10:18.459Z,25.57
2019-02-19T00:12:44.868Z,25.93
2019-02-19T00:15:11.477Z,25.83
2019-02-19T00:17:37.931Z,24.57
2019-02-19T00:20:04.431Z,29.90
2019-02-19T00:22:31.037Z,30.23
2019-02-19T00:24:57.547Z,26.70
2019-02-19T00:27:24.142Z,33.80
2019-02-19T00:29:50.461Z,34.63
2019-02-19T00:32:17.052Z,28.63
2019-02-19T00:34:43.599Z,27.27
2019-02-19T00:37:10.065Z,24.20
2019-02-19T00:39:36.563Z,26.60
2019-02-19T00:42:03.199Z,26.73
2019-02-19T00:44:29.809Z,34.30
2019-02-19T00:46:56.316Z,29.03
2019-02-19T00:49:22.913Z,23.43
2019-02-19T00:51:49.508Z,27.13
2019-02-19T00:54:16.093Z,22.57
2019-02-19T00:56:42.495Z,29.07
2019-02-19T00:59:08.863Z,22.43
2019-02-19T01:01:35.373Z,22.97
2019-02-19T01:04:01.971Z,21.23
2019-02-19T01:06:28.573Z,25.50
2019-02-19T01:08:55.128Z,25.20
2019-02-19T01:11:21.649Z,26.73
2019-02-19T01:13:48.034Z,29.20
2019-02-19T01:16:14.646Z,24.20
2019-02-19T01:18:41.226Z,26.87
2019-02-19T01:21:07.866Z,24.03
2019-02-19T01:23:34.430Z,21.37
2019-02-19T01:26:01.115Z,21.83
2019-02-19T01:28:27.642Z,21.87
2019-02-19T01:30:54.367Z,21.57
2019-02-19T01:33:21.695Z,36.60
2019-02-19T01:35:48.228Z,25.43
2019-02-19T01:38:14.751Z,20.90
2019-02-19T01:40:41.295Z,21.50
2019-02-19T01:43:09.622Z,24.63
2019-02-19T01:45:36.169Z,22.33
2019-02-19T01:48:02.702Z,24.20
2019-02-19T01:50:29.163Z,21.90
2019-02-19T01:52:55.464Z,21.87
2019-02-19T01:55:21.953Z,19.03
2019-02-19T01:57:48.448Z,22.60
2019-02-19T02:00:14.936Z,21.70
2019-02-19T02:02:41.422Z,20.97
2019-02-19T02:05:08.222Z,21.07
2019-02-19T02:07:34.593Z,27.17
2019-02-19T02:10:01.155Z,22.77
2019-02-19T02:12:27.544Z,22.87
2019-02-19T02:14:53.930Z,23.37
2019-02-19T02:17:20.588Z,25.50
2019-02-19T02:19:47.027Z,24.37
2019-02-19T02:22:13.762Z,24.30
2019-02-19T02:24:40.278Z,21.47
2019-02-19T02:27:06.750Z,21.07
2019-02-19T02:29:33.180Z,22.17
2019-02-19T02:31:59.595Z,22.77
2019-02-19T02:34:26.124Z,25.20
2019-02-19T02:36:52.518Z,25.10
2019-02-19T02:39:18.907Z,30.83
2019-02-19T02:41:45.201Z,25.83
2019-02-19T02:44:11.525Z,23.07
2019-02-19T02:46:37.931Z,25.13
2019-02-19T02:49:04.551Z,30.87
2019-02-19T02:51:31.017Z,23.73
2019-02-19T02:53:57.521Z,26.50
2019-02-19T02:56:24.068Z,27.07
2019-02-19T02:58:50.356Z,25.47
2019-02-19T03:01:17.043Z,29.77
2019-02-19T03:03:43.636Z,26.90
2019-02-19T03:06:23.922Z,31.13
2019-02-19T03:08:52.002Z,26.57
2019-02-19T03:11:18.491Z,27.17
2019-02-19T03:13:44.867Z,27.00
2019-02-19T03:16:11.379Z,24.37
2019-02-19T03:18:39.764Z,29.20
2019-02-19T03:21:06.165Z,29.90
2019-02-19T03:23:32.644Z,27.47
2019-02-19T03:25:59.071Z,29.47
2019-02-19T03:28:25.581Z,29.83
2019-02-19T03:30:52.126Z,26.90
2019-02-19T03:33:18.684Z,22.90
2019-02-19T03:35:45.329Z,31.90
2019-02-19T03:38:11.783Z,31.03
2019-02-19T03:40:38.293Z,29.43
2019-02-19T03:43:04.763Z,31.73
2019-02-19T03:45:31.162Z,31.10
2019-02-19T03:47:57.654Z,30.20
2019-02-19T03:50:24.138Z,25.33
2019-02-19T03:52:50.546Z,32.00
2019-02-19T03:55:17.104Z,34.73
2019-02-19T03:57:43.649Z,30.57
2019-02-19T04:00:10.179Z,35.53
2019-02-19T04:02:36.704Z,30.47
2019-02-19T04:05:03.794Z,31.00
2019-02-19T04:07:30.065Z,32.47
2019-02-19T04:09:56.620Z,29.63
2019-02-19T04:12:23.114Z,30.27
2019-02-19T04:14:49.515Z,31.77
2019-02-19T04:17:16.011Z,33.70
2019-02-19T04:19:42.796Z,37.60
2019-02-19T04:22:09.379Z,37.47
2019-02-19T04:24:35.921Z,32.53
2019-02-19T04:27:03.331Z,35.37
2019-02-19T04:29:29.926Z,29.10
2019-02-19T04:31:56.370Z,32.03
2019-02-19T04:34:22.931Z,34.50
2019-02-19T04:36:49.412Z,32.30
2019-02-19T04:39:15.823Z,33.87
2019-02-19T04:41:42.206Z,40.07
2019-02-19T04:44:08.614Z,32.73
2019-02-19T04:46:35.166Z,34.40
2019-02-19T04:49:01.809Z,34.73
2019-02-19T04:51:28.222Z,36.37
2019-02-19T04:53:54.707Z,36.27
2019-02-19T04:56:21.115Z,36.73
2019-02-19T04:58:47.732Z,33.50
2019-02-19T05:01:14.269Z,32.80
2019-02-19T05:03:40.914Z,28.20
2019-02-19T05:06:07.562Z,30.53
2019-02-19T05:08:34.064Z,34.20
2019-02-19T05:11:00.566Z,29.83
2019-02-19T05:13:27.028Z,33.03
2019-02-19T05:15:53.622Z,35.67
2019-02-19T05:18:20.004Z,34.70
2019-02-19T05:20:46.404Z,31.77
2019-02-19T05:23:12.904Z,34.10
2019-02-19T05:25:39.612Z,31.70
2019-02-19T05:28:07.915Z,36.80
2019-02-19T05:30:34.511Z,29.80
2019-02-19T05:33:00.930Z,29.63
2019-02-19T05:35:27.437Z,32.70
2019-02-19T05:37:54.043Z,33.37
2019-02-19T05:40:20.842Z,35.10
2019-02-19T05:42:47.319Z,30.10
2019-02-19T05:45:13.937Z,37.67
2019-02-19T05:47:40.492Z,29.37
2019-02-19T05:50:08.143Z,30.60
2019-02-19T05:52:34.722Z,35.40
2019-02-19T05:55:01.223Z,29.53
2019-02-19T05:57:27.750Z,32.43
2019-02-19T05:59:54.175Z,40.73
2019-02-19T06:02:22.508Z,39.33
2019-02-19T06:04:49.002Z,34.93
2019-02-19T06:07:15.553Z,41.80
2019-02-19T06:09:42.095Z,33.13
2019-02-19T06:12:08.672Z,37.90
2019-02-19T06:14:35.342Z,35.53
2019-02-19T06:17:01.875Z,35.43
2019-02-19T06:19:28.434Z,29.80
2019-02-19T06:21:55.078Z,33.03
2019-02-19T06:24:23.003Z,40.10
2019-02-19T06:26:49.584Z,46.77
2019-02-19T06:29:16.205Z,38.33
2019-02-19T06:31:42.670Z,36.93
2019-02-19T06:34:09.282Z,41.03
2019-02-19T06:36:35.828Z,40.23
2019-02-19T06:39:03.991Z,29.40
2019-02-19T06:41:30.586Z,37.30
2019-02-19T06:43:57.218Z,38.47
2019-02-19T06:46:23.687Z,35.43
2019-02-19T06:48:50.153Z,38.97
2019-02-19T06:51:16.793Z,37.20
2019-02-19T06:53:43.438Z,41.20
2019-02-19T06:56:09.835Z,38.53
2019-02-19T06:58:36.355Z,36.23
2019-02-19T07:01:03.206Z,38.80
2019-02-19T07:03:31.738Z,32.97
2019-02-19T07:05:58.414Z,38.20
2019-02-19T07:08:24.930Z,35.70
2019-02-19T07:10:51.421Z,38.03
2019-02-19T07:13:17.926Z,35.77
2019-02-19T07:15:44.580Z,35.57
2019-02-19T07:18:11.019Z,35.17
2019-02-19T07:20:37.593Z,35.80
2019-02-19T07:23:04.122Z,32.30
2019-02-19T07:25:30.695Z,37.17
2019-02-19T07:27:57.277Z,35.67
2019-02-19T07:30:23.797Z,34.40
2019-02-19T07:32:50.449Z,44.10
2019-02-19T07:35:17.108Z,36.70
2019-02-19T07:37:43.631Z,36.63
2019-02-19T07:40:10.657Z,38.53
2019-02-19T07:42:37.242Z,38.20
2019-02-19T07:45:09.303Z,45.30
2019-02-19T07:47:36.002Z,33.53
2019-02-19T07:50:04.163Z,38.07
2019-02-19T07:52:30.721Z,30.60
2019-02-19T07:54:57.294Z,36.97
2019-02-19T07:57:23.881Z,32.57
2019-02-19T07:59:50.444Z,37.23
2019-02-19T08:02:16.993Z,31.07
2019-02-19T08:04:43.588Z,31.87
2019-02-19T08:07:10.150Z,36.03
2019-02-19T08:09:36.656Z,36.90
2019-02-19T08:12:03.298Z,30.60
2019-02-19T08:14:29.699Z,30.97
2019-02-19T08:16:56.200Z,26.53
2019-02-19T08:19:22.629Z,31.47
2019-02-19T08:21:48.915Z,33.53
2019-02-19T08:24:15.403Z,30.77
2019-02-19T08:26:41.905Z,31.00
2019-02-19T08:29:13.695Z,28.00
2019-02-19T08:31:36.872Z,37.97
2019-02-19T08:34:03.334Z,31.37
2019-02-19T08:36:29.921Z,34.23
2019-02-19T08:38:56.552Z,32.13
2019-02-19T08:41:23.082Z,28.03
2019-02-19T08:43:49.358Z,25.80
2019-02-19T08:46:15.632Z,22.53
2019-02-19T08:48:42.081Z,31.10
2019-02-19T08:51:08.558Z,22.60
2019-02-19T08:53:36.527Z,26.80
2019-02-19T08:56:03.052Z,29.03
2019-02-19T08:58:29.666Z,21.97
2019-02-19T09:00:56.175Z,25.03
2019-02-19T09:03:22.562Z,29.43
2019-02-19T09:05:49.034Z,25.03
2019-02-19T09:08:15.665Z,25.13
2019-02-19T09:10:42.113Z,28.80
2019-02-19T09:13:08.645Z,26.50
2019-02-19T09:15:36.022Z,24.97
2019-02-19T09:18:02.807Z,22.20
2019-02-19T09:20:29.309Z,22.23
2019-02-19T09:22:55.948Z,24.87
2019-02-19T09:25:22.922Z,20.63
2019-02-19T09:27:49.202Z,24.73
2019-02-19T09:30:15.763Z,20.77
2019-02-19T09:32:42.138Z,24.13
2019-02-19T09:35:08.696Z,24.23
2019-02-19T09:37:35.131Z,26.57
2019-02-19T09:40:02.043Z,26.10
2019-02-19T09:42:28.465Z,32.17
2019-02-19T09:44:55.296Z,18.50
2019-02-19T09:47:21.834Z,20.57
2019-02-19T09:49:48.316Z,19.47
2019-02-19T09:52:14.826Z,23.90
2019-02-19T09:54:42.278Z,19.83
2019-02-19T09:57:08.964Z,24.83
2019-02-19T09:59:35.430Z,24.07
2019-02-19T10:02:02.071Z,19.53
2019-02-19T10:04:28.600Z,21.53
2019-02-19T10:06:55.205Z,19.60
2019-02-19T10:09:21.650Z,20.30
2019-02-19T10:11:48.186Z,20.30
2019-02-19T10:14:14.672Z,16.23
2019-02-19T10:16:42.008Z,23.53
2019-02-19T10:19:08.728Z,24.30
2019-02-19T10:21:35.120Z,27.23
2019-02-19T10:24:01.651Z,19.07
2019-02-19T10:26:28.271Z,22.33
2019-02-19T10:28:54.668Z,18.40
2019-02-19T10:31:21.156Z,20.30
2019-02-19T10:33:47.706Z,18.03
2019-02-19T10:36:14.557Z,17.10
2019-02-19T10:38:41.159Z,19.10
2019-02-19T10:41:07.622Z,19.83
2019-02-19T10:43:34.226Z,16.83
2019-02-19T10:46:00.610Z,16.20
2019-02-19T10:48:27.206Z,15.40
2019-02-19T10:50:53.888Z,16.53
2019-02-19T10:53:20.644Z,19.03
2019-02-19T10:55:47.150Z,21.57
2019-02-19T10:58:22.233Z,18.80
2019-02-19T11:00:42.053Z,16.37
2019-02-19T11:03:08.771Z,19.37
2019-02-19T11:05:35.280Z,16.00
2019-02-19T11:08:03.203Z,16.77
2019-02-19T11:10:29.533Z,19.57
2019-02-19T11:12:56.026Z,16.77
2019-02-19T11:15:22.645Z,22.97
2019-02-19T11:17:50.219Z,16.00
2019-02-19T11:20:19.907Z,18.40
2019-02-19T11:22:46.284Z,18.00
2019-02-19T11:25:12.971Z,18.27
2019-02-19T11:27:39.638Z,16.57
2019-02-19T11:30:09.810Z,17.43
2019-02-19T11:32:36.717Z,19.23
2019-02-19T11:35:05.301Z,18.27
2019-02-19T11:37:31.856Z,17.97
2019-02-19T11:39:58.266Z,18.40
2019-02-19T11:42:24.739Z,18.73
2019-02-19T11:44:51.420Z,16.83
2019-02-19T11:47:26.328Z,13.93
2019-02-19T11:49:46.297Z,17.47
2019-02-19T11:52:12.883Z,17.90
2019-02-19T11:54:39.332Z,19.33
2019-02-19T11:57:05.827Z,17.53
2019-02-19T11:59:32.262Z,14.37
2019-02-19T12:01:59.683Z,13.57
2019-02-19T12:04:26.151Z,14.17
2019-02-19T12:06:52.615Z,16.23
2019-02-19T12:09:20.482Z,18.07
2019-02-19T12:11:47.175Z,17.63
2019-02-19T12:14:13.660Z,14.77
2019-02-19T12:16:40.269Z,16.27
2019-02-19T12:19:07.043Z,12.13
2019-02-19T12:21:33.695Z,15.87
2019-02-19T12:24:00.391Z,14.90
2019-02-19T12:26:26.888Z,13.90
2019-02-19T12:28:53.154Z,18.97
2019-02-19T12:31:21.253Z,15.63
2019-02-19T12:33:48.442Z,15.30
2019-02-19T12:36:14.920Z,13.37
2019-02-19T12:38:41.503Z,14.97
2019-02-19T12:41:08.175Z,14.87
2019-02-19T12:43:34.532Z,15.60
2019-02-19T12:46:00.880Z,17.50
2019-02-19T12:48:27.238Z,14.47
2019-02-19T12:50:54.455Z,15.67
2019-02-19T12:53:22.898Z,11.53
2019-02-19T12:55:49.379Z,10.00
2019-02-19T12:58:15.914Z,10.83
2019-02-19T13:00:42.565Z,14.47
2019-02-19T13:03:09.148Z,15.57
2019-02-19T13:05:35.850Z,14.23
2019-02-19T13:08:02.312Z,17.07
2019-02-19T13:10:28.780Z,11.70
2019-02-19T13:12:55.410Z,9.10
2019-02-19T13:15:22.168Z,14.50
2019-02-19T13:17:48.481Z,14.83
2019-02-19T13:20:15.054Z,12.20
2019-02-19T13:22:44.289Z,11.17
2019-02-19T13:25:12.252Z,12.20
2019-02-19T13:27:38.876Z,13.27
2019-02-19T13:30:11.926Z,10.80
2019-02-19T13:32:38.247Z,11.57
2019-02-19T13:35:06.838Z,11.77
2019-02-19T13:37:33.445Z,8.83
2019-02-19T13:39:59.804Z,9.83
2019-02-19T13:42:26.308Z,10.33
2019-02-19T13:44:52.687Z,14.83
2019-02-19T13:47:19.116Z,9.97
2019-02-19T13:49:45.626Z,12.00
2019-02-19T13:52:22.237Z,13.47
2019-02-19T13:54:42.627Z,12.20
2019-02-19T13:57:09.122Z,10.80
2019-02-19T13:59:35.637Z,12.03
2019-02-19T14:02:02.250Z,14.23
2019-02-19T14:04:28.918Z,13.77
2019-02-19T14:06:55.288Z,11.27
2019-02-19T14:09:21.778Z,15.40
2019-02-19T14:11:48.174Z,12.97
2019-02-19T14:14:16.646Z,11.57
2019-02-19T14:16:52.086Z,12.70
2019-02-19T14:19:21.555Z,11.13
2019-02-19T14:21:52.581Z,18.10
2019-02-19T14:24:23.775Z,14.40
2019-02-19T14:26:54.704Z,11.13
2019-02-19T14:29:39.470Z,11.77
2019-02-19T14:32:07.862Z,14.20
2019-02-19T14:34:52.750Z,10.80
2019-02-19T14:37:21.119Z,14.23
2019-02-19T14:40:10.274Z,11.03
2019-02-19T14:42:50.706Z,12.97
2019-02-19T14:45:36.991Z,11.47
2019-02-19T14:48:21.990Z,9.77
2019-02-19T14:51:08.752Z,7.97
2019-02-19T14:53:42.754Z,8.23
2019-02-19T14:56:28.152Z,9.80
2019-02-19T14:59:12.212Z,12.00
2019-02-19T15:01:44.568Z,9.73
2019-02-19T15:04:16.664Z,9.13
2019-02-19T15:06:44.934Z,8.80
2019-02-19T15:09:14.226Z,10.17
2019-02-19T15:11:48.530Z,9.93
2019-02-19T15:14:33.085Z,11.50
2019-02-19T15:17:13.193Z,7.37
2019-02-19T15:19:53.116Z,6.23
2019-02-19T15:22:30.062Z,8.47
2019-02-19T15:25:04.004Z,8.87
2019-02-19T15:27:49.038Z,11.43
2019-02-19T15:30:20.263Z,7.83
2019-02-19T15:32:48.699Z,10.13
2019-02-19T15:35:34.889Z,9.30
2019-02-19T15:38:03.323Z,10.77
2019-02-19T15:40:31.589Z,10.23
2019-02-19T15:43:16.687Z,9.30
2019-02-19T15:45:53.655Z,8.23
2019-02-19T15:48:38.139Z,8.90
2019-02-19T15:51:18.290Z,7.20
2019-02-19T15:53:46.715Z,5.03
2019-02-19T15:56:20.954Z,7.83
2019-02-19T15:58:51.853Z,12.60
2019-02-19T16:01:23.053Z,4.97
2019-02-19T16:04:07.387Z,8.20
2019-02-19T16:06:35.785Z,6.13
2019-02-19T16:09:05.381Z,5.43
2019-02-19T16:11:36.579Z,7.10
2019-02-19T16:14:21.518Z,5.93
2019-02-19T16:16:49.926Z,5.57
2019-02-19T16:19:30.253Z,7.03
2019-02-19T16:22:15.042Z,6.70
2019-02-19T16:24:46.049Z,6.90
2019-02-19T16:27:16.939Z,7.47
2019-02-19T16:29:45.380Z,9.20
2019-02-19T16:32:29.853Z,10.40
2019-02-19T16:35:06.832Z,7.17
2019-02-19T16:37:35.256Z,3.60
2019-02-19T16:40:18.638Z,5.90
2019-02-19T16:43:06.455Z,5.73
2019-02-19T16:45:43.560Z,6.50
2019-02-19T16:48:26.566Z,4.80
2019-02-19T16:50:55.093Z,9.37
2019-02-19T16:53:35.256Z,6.07
2019-02-19T16:56:03.679Z,7.00
2019-02-19T16:58:35.378Z,5.83
2019-02-19T17:01:07.089Z,7.77
2019-02-19T17:03:35.503Z,5.80
2019-02-19T17:06:09.638Z,6.33
2019-02-19T17:08:40.631Z,7.00
2019-02-19T17:11:25.508Z,5.63
2019-02-19T17:14:01.648Z,4.37
2019-02-19T17:16:32.652Z,3.23
2019-02-19T17:19:00.939Z,4.97
2019-02-19T17:21:35.340Z,4.33
2019-02-19T17:24:12.357Z,5.67
2019-02-19T17:26:43.536Z,3.43
2019-02-19T17:29:23.994Z,3.10
2019-02-19T17:31:52.451Z,4.27
2019-02-19T17:34:24.115Z,5.67
2019-02-19T17:36:55.386Z,5.63
2019-02-19T17:39:32.589Z,5.23
2019-02-19T17:42:18.945Z,8.67
2019-02-19T17:44:47.272Z,10.83
2019-02-19T17:47:15.459Z,5.30
2019-02-19T17:49:52.425Z,6.30
2019-02-19T17:52:36.979Z,6.03
2019-02-19T17:55:05.665Z,4.20
2019-02-19T17:57:48.775Z,5.53
2019-02-19T18:00:20.055Z,7.90
2019-02-19T18:02:57.282Z,4.10
2019-02-19T18:05:31.512Z,5.93
2019-02-19T18:08:02.638Z,3.83
2019-02-19T18:10:33.814Z,4.00
2019-02-19T18:13:07.606Z,6.87
2019-02-19T18:15:51.018Z,4.23
2019-02-19T18:18:19.465Z,3.63
2019-02-19T18:20:47.761Z,2.83
2019-02-19T18:23:14.623Z,5.17
2019-02-19T18:25:41.294Z,2.27
2019-02-19T18:28:07.818Z,2.93
2019-02-19T18:30:34.181Z,5.43
2019-02-19T18:33:01.034Z,3.33
2019-02-19T18:35:27.630Z,4.67
2019-02-19T18:37:54.106Z,6.17
2019-02-19T18:40:20.481Z,3.50
2019-02-19T18:42:47.163Z,3.93
2019-02-19T18:45:13.770Z,1.90
2019-02-19T18:47:40.249Z,4.37
2019-02-19T18:50:08.042Z,6.63
2019-02-19T18:52:34.543Z,2.80
2019-02-19T18:55:00.937Z,4.17
2019-02-19T18:57:27.566Z,6.03
2019-02-19T18:59:53.961Z,3.07
2019-02-19T19:02:20.629Z,4.00
2019-02-19T19:04:47.298Z,6.43
2019-02-19T19:07:15.607Z,5.47
2019-02-19T19:09:42.110Z,5.43
2019-02-19T19:12:08.598Z,6.07
2019-02-19T19:14:34.999Z,3.83
2019-02-19T19:17:01.538Z,7.07
2019-02-19T19:19:28.160Z,4.97
2019-02-19T19:21:54.438Z,3.33
2019-02-19T19:24:20.957Z,2.13
2019-02-19T19:26:47.257Z,3.67
2019-02-19T19:29:13.627Z,2.60
2019-02-19T19:31:40.123Z,4.50
2019-02-19T19:34:06.451Z,4.53
2019-02-19T19:36:32.922Z,4.20
2019-02-19T19:38:59.328Z,5.23
2019-02-19T19:41:36.110Z,5.17
2019-02-19T19:44:02.540Z,5.53
2019-02-19T19:46:29.049Z,6.17
2019-02-19T19:48:55.344Z,6.03
2019-02-19T19:51:21.873Z,5.17
2019-02-19T19:53:49.912Z,5.57
2019-02-19T19:56:16.551Z,4.87
2019-02-19T19:58:43.097Z,4.03
2019-02-19T20:01:09.599Z,6.20
2019-02-19T20:03:36.038Z,4.17
2019-02-19T20:06:02.645Z,5.27
2019-02-19T20:08:29.029Z,9.00
2019-02-19T20:10:55.539Z,3.73
2019-02-19T20:13:21.820Z,5.43
2019-02-19T20:15:48.576Z,5.17
2019-02-19T20:18:14.993Z,4.07
2019-02-19T20:20:41.603Z,7.13
2019-02-19T20:23:08.051Z,6.47
2019-02-19T20:25:34.671Z,6.00
2019-02-19T20:28:01.352Z,5.77
2019-02-19T20:30:27.837Z,5.07
2019-02-19T20:32:56.682Z,11.50
2019-02-19T20:35:25.114Z,9.47
2019-02-19T20:37:53.986Z,4.00
2019-02-19T20:40:19.820Z,7.27
2019-02-19T20:42:46.316Z,6.40
2019-02-19T20:45:12.724Z,6.90
2019-02-19T20:47:39.204Z,5.03
2019-02-19T20:50:10.706Z,6.80
2019-02-19T20:52:37.202Z,10.20
2019-02-19T20:55:06.121Z,3.83
2019-02-19T20:57:32.524Z,3.57
2019-02-19T20:59:59.379Z,8.47
2019-02-19T21:02:26.042Z,3.90
2019-02-19T21:04:52.466Z,6.00
2019-02-19T21:07:18.895Z,8.23
2019-02-19T21:09:45.231Z,4.17
2019-02-19T21:12:11.698Z,3.50
2019-02-19T21:14:38.176Z,2.67
2019-02-19T21:17:04.665Z,5.07
2019-02-19T21:19:31.347Z,3.53
2019-02-19T21:21:57.861Z,5.90
2019-02-19T21:24:24.182Z,5.30
2019-02-19T21:26:50.820Z,9.97
2019-02-19T21:29:17.308Z,6.90
2019-02-19T21:31:43.767Z,5.23
2019-02-19T21:34:10.233Z,3.17
2019-02-19T21:36:36.634Z,4.93
2019-02-19T21:39:04.865Z,4.43
2019-02-19T21:41:31.654Z,3.90
2019-02-19T21:43:58.337Z,3.67
2019-02-19T21:46:24.960Z,4.70
2019-02-19T21:48:53.910Z,4.70
2019-02-19T21:51:22.309Z,9.07
2019-02-19T21:53:50.656Z,5.00
2019-02-19T21:56:25.250Z,9.50
2019-02-19T21:58:51.625Z,9.90
2019-02-19T22:01:18.020Z,5.43
2019-02-19T22:03:44.607Z,6.57
2019-02-19T22:06:11.272Z,2.43
2019-02-19T22:08:37.754Z,6.83
2019-02-19T22:11:06.059Z,5.43
2019-02-19T22:13:32.443Z,8.43
2019-02-19T22:15:59.093Z,6.30
2019-02-19T22:18:25.816Z,7.53
2019-02-19T22:20:57.001Z,4.90
2019-02-19T22:23:23.436Z,5.73
2019-02-19T22:25:49.854Z,9.37
2019-02-19T22:28:16.347Z,3.73
2019-02-19T22:30:42.864Z,5.17
2019-02-19T22:33:09.322Z,10.00
2019-02-19T22:35:35.813Z,5.03
2019-02-19T22:38:02.352Z,8.83
2019-02-19T22:40:28.710Z,10.03
2019-02-19T22:42:55.101Z,5.60
2019-02-19T22:45:21.516Z,4.57
2019-02-19T22:47:53.467Z,7.00
2019-02-19T22:50:17.271Z,7.57
2019-02-19T22:52:43.896Z,7.43
2019-02-19T22:55:12.412Z,7.73
2019-02-19T22:57:38.906Z,4.80
2019-02-19T23:00:10.857Z,4.80
2019-02-19T23:02:37.451Z,4.30
2019-02-19T23:05:05.326Z,5.27
2019-02-19T23:07:31.873Z,9.03
2019-02-19T23:09:58.313Z,3.80
2019-02-19T23:12:24.716Z,8.00
2019-02-19T23:14:51.104Z,6.93
2019-02-19T23:17:17.674Z,8.77
2019-02-19T23:19:44.481Z,7.53
2019-02-19T23:22:10.986Z,4.33
2019-02-19T23:24:37.496Z,6.30
2019-02-19T23:27:03.963Z,3.57
2019-02-19T23:29:30.498Z,4.77
2019-02-19T23:31:57.007Z,4.30
2019-02-19T23:34:23.412Z,5.13
2019-02-19T23:36:52.778Z,8.53
2019-02-19T23:39:19.279Z,5.77
2019-02-19T23:41:51.623Z,2.30
2019-02-19T23:44:18.118Z,9.43
2019-02-19T23:46:44.495Z,9.60
2019-02-19T23:49:10.758Z,7.00
2019-02-19T23:51:37.350Z,7.13
2019-02-19T23:54:03.855Z,2.50
2019-02-19T23:56:30.343Z,6.57
2019-02-19T23:58:56.838Z,6.27
